Time;durP1;ratioP1;P1;durP2;ratioP2;P2;SDS_P1;SDS_P2;PMS_P1;PMS_P2;Temp;Humidity;BMP_temperature;BMP_pressure;BME280_temperature;BME280_humidity;BME280_pressure;Samples;Min_cycle;Max_cycle;Signal;HPM_P1;HPM_P2
2021/04/25 00:00:29;;;;;;;0.60;0.60;;;;;;;8.55;50.51;97265.37;29395;217;63004;-64
2021/04/25 00:01:01;;;;;;;0.60;0.60;;;;;;;8.49;50.14;97264.56;29395;202;63008;-64
2021/04/25 00:01:32;;;;;;;0.60;0.60;;;;;;;8.49;50.14;97264.56;29395;210;63004;-64
2021/04/25 00:02:04;;;;;;;0.60;0.60;;;;;;;8.56;50.36;97269.72;29394;212;64014;-64
2021/04/25 00:02:36;;;;;;;0.60;0.60;;;;;;;8.55;50.29;97268.91;29395;267;63005;-64
2021/04/25 00:03:07;;;;;;;0.60;0.60;;;;;;;8.65;49.92;97268.91;29395;199;63009;-63
2021/04/25 00:03:38;;;;;;;0.60;0.60;;;;;;;8.74;49.79;97267.25;29395;276;63005;-64
2021/04/25 00:04:14;;;;;;;0.60;0.60;;;;;;;8.80;49.57;97265.34;29395;229;63009;-65
2021/04/25 00:04:45;;;;;;;0.60;0.60;;;;;;;8.74;49.72;97261.84;29373;238;63005;-64
2021/04/25 00:05:18;;;;;;;0.60;0.60;;;;;;;8.70;49.61;97266.16;29395;203;63005;-64
2021/04/25 00:05:50;;;;;;;0.57;0.57;;;;;;;8.65;49.83;97268.09;29395;214;63004;-63
2021/04/25 00:06:21;;;;;;;0.50;0.50;;;;;;;8.58;50.14;97267.53;29395;215;63009;-64
2021/04/25 00:06:52;;;;;;;0.60;0.60;;;;;;;8.51;49.79;97262.41;29395;219;63008;-64
2021/04/25 00:07:24;;;;;;;0.50;0.50;;;;;;;8.53;50.72;97271.06;29394;342;64013;-66
2021/04/25 00:07:55;;;;;;;0.60;0.60;;;;;;;8.55;50.62;97263.47;29395;213;63000;-64
2021/04/25 00:08:26;;;;;;;0.50;0.50;;;;;;;8.57;50.29;97266.72;29395;222;63008;-64
2021/04/25 00:08:58;;;;;;;0.50;0.50;;;;;;;8.55;50.40;97271.59;29395;218;63004;-63
2021/04/25 00:09:30;;;;;;;0.60;0.60;;;;;;;8.53;49.91;97272.94;29394;285;64014;-55
2021/04/25 00:10:02;;;;;;;0.60;0.60;;;;;;;8.48;50.24;97268.34;29395;218;63005;-64
2021/04/25 00:10:34;;;;;;;0.60;0.60;;;;;;;8.45;50.26;97268.88;29395;197;63009;-63
2021/04/25 00:11:06;;;;;;;0.60;0.60;;;;;;;8.47;50.77;97272.13;29395;202;63000;-67
2021/04/25 00:11:41;;;;;;;0.60;0.60;;;;;;;8.53;50.24;97270.25;29395;226;63009;-63
2021/04/25 00:12:12;;;;;;;0.60;0.60;;;;;;;8.50;50.97;97266.19;29395;227;63005;-63
2021/04/25 00:12:44;;;;;;;0.52;0.52;;;;;;;8.48;50.91;97271.06;29395;228;63009;-63
2021/04/25 00:13:16;;;;;;;0.68;0.68;;;;;;;8.48;51.19;97268.34;29395;207;63005;-65
2021/04/25 00:13:47;;;;;;;0.60;0.60;;;;;;;8.46;50.58;97273.22;29395;223;63009;-63
2021/04/25 00:14:20;;;;;;;0.50;0.50;;;;;;;8.43;50.30;97270.22;29394;213;64009;-65
2021/04/25 00:14:51;;;;;;;0.60;0.60;;;;;;;8.46;50.64;97270.50;29395;364;63009;-65
2021/04/25 00:15:25;;;;;;;5.12;4.97;;;;;;;8.53;50.67;97268.34;29395;332;63004;-64
2021/04/25 00:15:57;;;;;;;0.55;0.55;;;;;;;8.64;49.97;97267.28;29394;205;64008;-64
2021/04/25 00:16:28;;;;;;;0.60;0.60;;;;;;;8.67;50.16;97264.00;29395;196;63004;-64
2021/04/25 00:17:00;;;;;;;0.60;0.60;;;;;;;8.62;49.99;97261.31;29395;210;63005;-64
2021/04/25 00:17:31;;;;;;;0.60;0.60;;;;;;;8.57;50.12;97261.31;29395;362;63005;-65
2021/04/25 00:18:02;;;;;;;0.60;0.60;;;;;;;8.55;50.39;97268.91;29394;199;64009;-64
2021/04/25 00:18:35;;;;;;;0.60;0.60;;;;;;;8.53;50.42;97262.94;29395;209;63005;-64
2021/04/25 00:19:06;;;;;;;0.60;0.60;;;;;;;8.51;50.63;97265.09;29394;223;64033;-64
2021/04/25 00:19:37;;;;;;;0.60;0.60;;;;;;;8.49;50.67;97263.75;29395;203;63005;-64
2021/04/25 00:20:11;;;;;;;0.60;0.60;;;;;;;8.49;50.70;97259.16;29395;218;63009;-64
2021/04/25 00:20:43;;;;;;;0.57;0.57;;;;;;;8.50;50.73;97266.19;29395;232;63005;-65
2021/04/25 00:21:14;;;;;;;0.60;0.60;;;;;;;8.48;50.50;97262.94;29395;198;63009;-64
2021/04/25 00:21:46;;;;;;;0.60;0.60;;;;;;;8.45;50.84;97263.47;29395;227;63004;-64
2021/04/25 00:22:17;;;;;;;0.60;0.60;;;;;;;8.43;50.68;97265.63;29395;196;63009;-64
2021/04/25 00:22:49;;;;;;;0.60;0.60;;;;;;;8.40;51.18;97261.56;29395;220;63004;-63
2021/04/25 00:23:20;;;;;;;0.60;0.60;;;;;;;8.43;51.02;97264.81;29395;226;63009;-65
2021/04/25 00:23:52;;;;;;;0.60;0.60;;;;;;;8.40;50.82;97266.97;29394;229;64008;-64
2021/04/25 00:24:24;;;;;;;0.60;0.60;;;;;;;8.40;51.24;97256.16;29395;208;63009;-65
2021/04/25 00:24:57;;;;;;;0.60;0.60;;;;;;;8.38;51.01;97266.44;29395;223;63009;-64
2021/04/25 00:25:29;;;;;;;0.60;0.60;;;;;;;8.41;51.24;97262.38;29395;210;63009;-65
2021/04/25 00:26:03;;;;;;;0.60;0.60;;;;;;;8.46;51.02;97259.69;29395;233;63005;-64
2021/04/25 00:26:35;;;;;;;0.60;0.60;;;;;;;8.46;50.73;97262.41;29395;207;63009;-64
2021/04/25 00:27:09;;;;;;;0.60;0.60;;;;;;;8.45;50.84;97258.06;29395;219;63005;-64
2021/04/25 00:27:41;;;;;;;0.60;0.60;;;;;;;8.47;50.94;97261.31;29395;223;63009;-56
2021/04/25 00:28:13;;;;;;;0.50;0.50;;;;;;;8.46;50.94;97261.59;29395;211;63005;-65
2021/04/25 00:28:44;;;;;;;0.60;0.60;;;;;;;8.43;50.78;97260.22;29394;219;64013;-63
2021/04/25 00:29:16;;;;;;;0.50;0.50;;;;;;;8.44;50.87;97259.16;29394;199;64009;-63
2021/04/25 00:29:47;;;;;;;0.60;0.60;;;;;;;8.47;50.81;97263.22;29395;228;63009;-64
2021/04/25 00:30:20;;;;;;;0.50;0.50;;;;;;;8.44;50.68;97261.84;29395;220;63004;-63
2021/04/25 00:30:52;;;;;;;0.60;0.60;;;;;;;8.42;50.73;97264.00;29395;233;63009;-64
2021/04/25 00:31:23;;;;;;;0.60;0.60;;;;;;;8.40;50.76;97249.94;29395;218;63004;-64
2021/04/25 00:31:54;;;;;;;0.60;0.60;;;;;;;8.36;50.88;97255.09;29395;229;63009;-64
2021/04/25 00:32:26;;;;;;;0.60;0.60;;;;;;;8.35;50.94;97261.56;29395;233;63001;-64
2021/04/25 00:32:57;;;;;;;0.60;0.60;;;;;;;8.46;50.85;97262.41;29395;242;63009;-64
2021/04/25 00:33:32;;;;;;;0.50;0.50;;;;;;;8.50;50.76;97262.66;29395;335;63005;-64
2021/04/25 00:34:03;;;;;;;0.60;0.60;;;;;;;8.44;50.55;97256.44;29395;239;63009;-64
2021/04/25 00:34:35;;;;;;;0.50;0.50;;;;;;;8.47;50.77;97258.59;29394;209;64009;-63
2021/04/25 00:35:08;;;;;;;0.60;0.60;;;;;;;8.51;50.78;97259.69;29395;234;63009;-65
2021/04/25 00:35:39;;;;;;;0.50;0.50;;;;;;;8.47;50.73;97255.91;29395;212;63005;-63
2021/04/25 00:36:11;;;;;;;0.60;0.60;;;;;;;8.52;50.47;97250.50;29395;226;63009;-64
2021/04/25 00:36:43;;;;;;;0.60;0.60;;;;;;;8.52;50.52;97255.91;29395;219;63004;-63
2021/04/25 00:37:14;;;;;;;0.60;0.60;;;;;;;8.57;50.25;97261.31;29395;207;63009;-64
2021/04/25 00:37:47;;;;;;;0.60;0.60;;;;;;;8.51;50.31;97254.28;29394;252;64009;-62
2021/04/25 00:38:18;;;;;;;0.57;0.57;;;;;;;8.58;50.29;97257.53;29395;272;63009;-64
2021/04/25 00:38:49;;;;;;;0.60;0.60;;;;;;;8.54;50.59;97256.44;29395;211;63004;-64
2021/04/25 00:39:24;;;;;;;0.60;0.60;;;;;;;8.50;50.66;97252.66;29394;224;64013;-65
2021/04/25 00:39:55;;;;;;;0.60;0.60;;;;;;;8.57;50.55;97261.31;29395;203;63005;-65
2021/04/25 00:40:29;;;;;;;0.60;0.60;;;;;;;8.54;50.24;97251.03;29395;208;63009;-65
2021/04/25 00:41:01;;;;;;;0.60;0.60;;;;;;;8.56;50.44;97253.47;29395;249;63011;-64
2021/04/25 00:41:33;;;;;;;0.60;0.60;;;;;;;8.52;50.18;97253.22;29395;212;63009;-64
2021/04/25 00:42:05;;;;;;;0.60;0.60;;;;;;;8.44;51.30;97251.03;29394;208;64009;-65
2021/04/25 00:42:36;;;;;;;0.60;0.60;;;;;;;8.36;50.40;97254.28;29395;253;63009;-65
2021/04/25 00:43:08;;;;;;;0.60;0.60;;;;;;;8.30;50.96;97247.22;29395;196;63004;-64
2021/04/25 00:43:39;;;;;;;0.60;0.60;;;;;;;8.24;50.88;97251.81;29395;224;63009;-63
2021/04/25 00:44:11;;;;;;;0.60;0.60;;;;;;;8.20;51.32;97249.91;29395;199;63004;-63
2021/04/25 00:44:47;;;;;;;0.60;0.60;;;;;;;8.17;51.39;97261.25;29395;213;63009;-64
2021/04/25 00:45:19;;;;;;;0.60;0.60;;;;;;;8.14;51.65;97256.38;29395;220;63004;-65
2021/04/25 00:45:50;;;;;;;0.60;0.60;;;;;;;8.08;51.65;97253.69;29394;230;64013;-63
2021/04/25 00:46:21;;;;;;;0.60;0.60;;;;;;;8.13;51.75;97249.34;29395;235;63004;-65
2021/04/25 00:46:52;;;;;;;0.60;0.60;;;;;;;8.14;51.64;97253.69;29395;232;63008;-64
2021/04/25 00:47:23;;;;;;;0.60;0.60;;;;;;;8.11;51.85;97251.53;29395;215;63005;-65
2021/04/25 00:47:54;;;;;;;0.60;0.60;;;;;;;8.08;51.35;97256.38;29395;198;63028;-64
2021/04/25 00:48:26;;;;;;;0.60;0.60;;;;;;;8.05;51.67;97256.09;29395;227;63005;-64
2021/04/25 00:48:57;;;;;;;0.60;0.60;;;;;;;8.01;51.70;97247.72;29395;222;63009;-64
2021/04/25 00:49:28;;;;;;;0.55;0.55;;;;;;;8.01;51.95;97249.59;29395;213;63005;-64
2021/04/25 00:50:02;;;;;;;0.60;0.60;;;;;;;8.00;52.38;97256.91;29394;210;64013;-64
2021/04/25 00:50:33;;;;;;;0.60;0.60;;;;;;;8.00;52.45;97247.97;29395;221;63004;-64
2021/04/25 00:51:09;;;;;;;0.60;0.60;;;;;;;7.99;52.16;97244.47;29396;197;63013;-64
2021/04/25 00:51:41;;;;;;;0.68;0.68;;;;;;;7.94;53.33;97255.28;29395;207;63004;-63
2021/04/25 00:52:12;;;;;;;0.60;0.60;;;;;;;7.90;52.46;97245.28;29395;256;63009;-64
2021/04/25 00:52:45;;;;;;;0.60;0.60;;;;;;;7.90;52.77;97254.19;29395;287;63004;-64
2021/04/25 00:53:17;;;;;;;0.60;0.60;;;;;;;7.90;52.68;97251.50;29394;205;64013;-63
2021/04/25 00:53:50;;;;;;;0.60;0.60;;;;;;;7.87;52.87;97252.03;29394;279;64009;-63
2021/04/25 00:54:21;;;;;;;0.60;0.60;;;;;;;7.82;52.61;97246.59;29394;232;64014;-64
2021/04/25 00:54:53;;;;;;;0.60;0.60;;;;;;;7.84;53.14;97247.16;29395;223;63005;-63
2021/04/25 00:55:26;;;;;;;0.50;0.50;;;;;;;7.81;53.19;97250.37;29395;203;63009;-56
2021/04/25 00:55:58;;;;;;;0.60;0.60;;;;;;;7.78;53.08;97247.41;29395;275;63005;-55
2021/04/25 00:56:35;;;;;;;0.60;0.60;;;;;;;7.74;53.32;97244.41;29373;251;63009;-64
2021/04/25 00:57:07;;;;;;;0.60;0.60;;;;;;;7.70;52.89;97251.41;29395;217;63005;-64
2021/04/25 00:57:39;;;;;;;0.60;0.60;;;;;;;7.65;54.18;97246.81;29395;198;63009;-63
2021/04/25 00:58:11;;;;;;;0.60;0.60;;;;;;;7.56;54.18;97244.91;29395;281;63004;-64
2021/04/25 00:58:43;;;;;;;0.60;0.60;;;;;;;7.50;53.92;97248.66;29394;204;64013;-63
2021/04/25 00:59:16;;;;;;;0.60;0.60;;;;;;;7.50;53.76;97245.97;29395;270;63017;-65
2021/04/25 00:59:48;;;;;;;0.60;0.60;;;;;;;7.54;53.90;97241.66;29395;259;63009;-65
2021/04/25 01:00:20;;;;;;;0.60;0.60;;;;;;;7.55;54.10;97243.28;29395;238;63004;-64
2021/04/25 01:00:52;;;;;;;0.60;0.60;;;;;;;7.53;53.95;97240.03;29395;262;63008;-64
2021/04/25 01:01:26;;;;;;;0.60;0.60;;;;;;;7.51;54.13;97236.78;29395;266;63005;-64
2021/04/25 01:01:57;;;;;;;0.60;0.60;;;;;;;7.52;53.88;97243.81;29395;249;63009;-63
2021/04/25 01:02:29;;;;;;;0.60;0.60;;;;;;;7.55;53.85;97244.09;29371;230;64009;-64
2021/04/25 01:03:01;;;;;;;0.57;0.57;;;;;;;7.56;53.68;97242.22;29395;261;63009;-64
2021/04/25 01:03:33;;;;;;;0.60;0.60;;;;;;;7.56;53.65;97239.50;29395;357;63005;-64
2021/04/25 01:04:04;;;;;;;0.60;0.60;;;;;;;7.59;53.99;97239.78;29373;199;63009;-65
2021/04/25 01:04:36;;;;;;;0.60;0.60;;;;;;;7.60;53.57;97241.41;29373;332;63005;-64
2021/04/25 01:05:12;;;;;;;0.60;0.60;;;;;;;7.61;53.46;97242.22;29371;256;64013;-64
2021/04/25 01:05:46;;;;;;;0.60;0.60;;;;;;;7.59;54.54;97249.78;29373;203;63004;-64
2021/04/25 01:06:17;;;;;;;0.60;0.60;;;;;;;7.55;53.97;97244.09;29373;289;63009;-63
2021/04/25 01:06:48;;;;;;;0.60;0.60;;;;;;;7.53;53.78;97246.25;29371;264;64009;-63
2021/04/25 01:07:19;;;;;;;0.60;0.60;;;;;;;7.51;54.24;97248.41;29373;202;63009;-63
2021/04/25 01:07:51;;;;;;;0.60;0.60;;;;;;;7.48;54.26;97246.22;29373;249;63004;-63
2021/04/25 01:08:22;;;;;;;0.60;0.60;;;;;;;7.49;53.96;97255.94;29373;245;63008;-64
2021/04/25 01:08:54;;;;;;;0.50;0.50;;;;;;;7.49;54.19;97249.75;29371;293;64009;-64
2021/04/25 01:09:25;;;;;;;0.60;0.60;;;;;;;7.49;53.88;97244.34;29395;256;63009;-64
2021/04/25 01:09:56;;;;;;;0.60;0.60;;;;;;;7.50;54.09;97244.06;29373;221;63005;-63
2021/04/25 01:10:28;;;;;;;0.60;0.60;;;;;;;7.51;54.06;97247.59;29395;206;63009;-63
2021/04/25 01:11:00;;;;;;;0.60;0.60;;;;;;;7.52;54.38;97249.22;29395;239;63005;-65
2021/04/25 01:11:32;;;;;;;0.50;0.50;;;;;;;7.59;53.93;97241.69;29373;241;63009;-64
2021/04/25 01:12:05;;;;;;;0.60;0.60;;;;;;;7.69;53.78;97241.69;29395;196;63005;-65
2021/04/25 01:12:37;;;;;;;0.60;0.60;;;;;;;7.69;53.05;97242.50;29395;219;63009;-64
2021/04/25 01:13:09;;;;;;;0.57;0.57;;;;;;;7.67;53.30;97236.56;29395;234;63004;-65
2021/04/25 01:13:40;;;;;;;0.57;0.57;;;;;;;7.66;53.25;97240.34;29394;211;64013;-64
2021/04/25 01:14:12;;;;;;;0.52;0.52;;;;;;;7.67;53.39;97241.97;29395;221;63004;-64
2021/04/25 01:14:43;;;;;;;0.50;0.50;;;;;;;7.81;52.93;97242.28;29395;198;63009;-59
2021/04/25 01:15:16;;;;;;;0.60;0.60;;;;;;;7.91;52.94;97241.50;29395;232;63004;-64
2021/04/25 01:15:48;;;;;;;0.50;0.50;;;;;;;8.01;52.41;97236.91;29395;333;63008;-64
2021/04/25 01:16:19;;;;;;;0.60;0.60;;;;;;;7.99;52.23;97239.06;29371;221;64009;-64
2021/04/25 01:16:51;;;;;;;0.50;0.50;;;;;;;7.94;52.39;97235.56;29395;203;63009;-63
2021/04/25 01:17:22;;;;;;;0.60;0.60;;;;;;;7.87;52.52;97238.50;29395;299;63005;-65
2021/04/25 01:17:54;;;;;;;6.03;5.72;;;;;;;7.87;52.62;97240.41;29394;262;64014;-65
2021/04/25 01:18:25;;;;;;;0.50;0.50;;;;;;;7.85;52.92;97237.97;29394;295;64009;-63
2021/04/25 01:18:56;;;;;;;0.60;0.60;;;;;;;7.80;52.76;97246.06;29373;259;63009;-64
2021/04/25 01:19:27;;;;;;;0.60;0.60;;;;;;;7.76;52.78;97238.75;29373;220;63005;-63
2021/04/25 01:19:59;;;;;;;0.60;0.60;;;;;;;7.74;53.21;97241.72;29395;262;63009;-63
2021/04/25 01:20:31;;;;;;;0.60;0.60;;;;;;;7.70;52.99;97243.31;29395;216;63004;-63
2021/04/25 01:21:06;;;;;;;0.60;0.60;;;;;;;7.78;53.18;97236.59;29395;258;63009;-64
2021/04/25 01:21:37;;;;;;;0.60;0.60;;;;;;;7.84;52.74;97241.75;29394;238;64009;-59
2021/04/25 01:22:08;;;;;;;0.50;0.50;;;;;;;7.85;52.63;97237.97;29395;218;63013;-63
2021/04/25 01:22:40;;;;;;;0.60;0.60;;;;;;;7.80;52.73;97235.25;29395;215;63004;-64
2021/04/25 01:23:12;;;;;;;0.60;0.60;;;;;;;7.74;53.61;97242.53;29395;225;63008;-63
2021/04/25 01:23:43;;;;;;;0.60;0.60;;;;;;;7.78;53.29;97242.81;29395;205;63004;-65
2021/04/25 01:24:14;;;;;;;0.60;0.60;;;;;;;7.82;52.93;97243.91;29395;245;63009;-64
2021/04/25 01:24:47;;;;;;;0.60;0.60;;;;;;;7.75;53.40;97240.63;29395;228;63005;-64
2021/04/25 01:25:21;;;;;;;0.60;0.60;;;;;;;7.70;53.00;97241.44;29373;229;63009;-65
2021/04/25 01:25:52;;;;;;;0.60;0.60;;;;;;;7.68;53.34;97243.59;29394;235;64009;-63
2021/04/25 01:26:24;;;;;;;0.60;0.60;;;;;;;7.66;53.22;97244.91;29395;223;63009;-64
2021/04/25 01:26:55;;;;;;;0.60;0.60;;;;;;;7.63;53.23;97240.84;29395;241;63005;-64
2021/04/25 01:27:27;;;;;;;0.60;0.60;;;;;;;7.59;52.98;97247.09;29373;234;63009;-64
2021/04/25 01:27:58;;;;;;;0.60;0.60;;;;;;;7.55;53.37;97244.09;29395;202;63010;-64
2021/04/25 01:28:30;;;;;;;0.80;0.80;;;;;;;7.48;54.02;97245.41;29394;231;64013;-64
2021/04/25 01:29:02;;;;;;;0.60;0.60;;;;;;;7.43;54.01;97250.78;29395;197;63004;-65
2021/04/25 01:29:33;;;;;;;0.60;0.60;;;;;;;7.42;54.04;97247.28;29371;203;64013;-64
2021/04/25 01:30:07;;;;;;;0.60;0.60;;;;;;;7.42;54.33;97251.88;29395;202;63008;-64
2021/04/25 01:30:38;;;;;;;0.60;0.60;;;;;;;7.40;54.09;97244.84;29395;257;63008;-64
2021/04/25 01:31:09;;;;;;;0.52;0.52;;;;;;;7.44;54.39;97255.09;29395;228;63007;-65
2021/04/25 01:31:41;;;;;;;0.60;0.60;;;;;;;7.53;53.81;97251.66;29395;209;63009;-63
2021/04/25 01:32:12;;;;;;;0.60;0.60;;;;;;;7.58;53.75;97253.56;29395;211;63005;-64
2021/04/25 01:32:43;;;;;;;0.60;0.60;;;;;;;7.57;53.43;97241.94;29395;202;63009;-64
2021/04/25 01:33:16;;;;;;;0.55;0.55;;;;;;;7.54;53.89;97247.06;29395;208;63005;-63
2021/04/25 01:33:47;;;;;;;0.60;0.60;;;;;;;7.51;53.46;97247.59;29394;240;64013;-65
2021/04/25 01:34:22;;;;;;;0.60;0.60;;;;;;;7.48;53.67;97248.13;29395;326;63005;-64
2021/04/25 01:34:53;;;;;;;0.57;0.57;;;;;;;7.45;54.04;97254.03;29395;214;63009;-65
2021/04/25 01:35:25;;;;;;;0.60;0.60;;;;;;;7.36;55.36;97251.84;29373;276;63005;-55
2021/04/25 01:35:56;;;;;;;0.60;0.60;;;;;;;7.31;54.61;97242.91;29395;198;63009;-63
2021/04/25 01:36:27;;;;;;;0.60;0.60;;;;;;;7.29;54.69;97245.84;29395;239;63004;-63
2021/04/25 01:36:59;;;;;;;0.52;0.52;;;;;;;7.29;54.74;97256.66;29395;279;63009;-63
2021/04/25 01:37:30;;;;;;;0.62;0.62;;;;;;;7.27;54.85;97253.44;29394;209;64009;-64
2021/04/25 01:38:02;;;;;;;0.60;0.60;;;;;;;7.27;54.66;97248.03;29395;235;63009;-64
2021/04/25 01:38:33;;;;;;;0.60;0.60;;;;;;;7.25;55.14;97255.59;29395;220;63004;-64
2021/04/25 01:39:05;;;;;;;0.60;0.60;;;;;;;7.22;55.00;97256.09;29395;199;63009;-65
2021/04/25 01:39:36;;;;;;;0.70;0.70;;;;;;;7.20;55.26;97252.84;29372;248;63005;-64
2021/04/25 01:40:09;;;;;;;0.60;0.60;;;;;;;7.20;55.01;97258.25;29373;220;63009;-64
2021/04/25 01:40:40;;;;;;;0.60;0.60;;;;;;;7.17;54.85;97261.47;29373;296;63005;-63
2021/04/25 01:41:11;;;;;;;0.60;0.60;;;;;;;7.23;55.14;97262.31;29371;233;64013;-62
2021/04/25 01:41:42;;;;;;;0.60;0.60;;;;;;;7.30;54.74;97258.28;29373;320;63005;-56
2021/04/25 01:42:14;;;;;;;0.60;0.60;;;;;;;7.31;54.62;97264.50;29371;334;64013;-55
2021/04/25 01:42:45;;;;;;;0.60;0.60;;;;;;;7.26;55.54;97264.50;29373;232;63005;-64
2021/04/25 01:43:16;;;;;;;0.60;0.60;;;;;;;7.19;54.90;97264.72;29373;229;63009;-64
2021/04/25 01:43:49;;;;;;;0.60;0.60;;;;;;;7.16;55.17;97261.72;29395;238;63004;-64
2021/04/25 01:44:24;;;;;;;0.60;0.60;;;;;;;7.12;55.24;97264.13;29373;249;63023;-64
2021/04/25 01:44:55;;;;;;;0.60;0.60;;;;;;;7.11;55.16;97265.22;29373;199;63004;-63
2021/04/25 01:45:27;;;;;;;0.60;0.60;;;;;;;7.11;55.58;97265.22;29371;280;64013;-65
2021/04/25 01:45:59;;;;;;;0.60;0.60;;;;;;;7.09;55.52;97277.34;29373;223;63004;-65
2021/04/25 01:46:30;;;;;;;0.60;0.60;;;;;;;7.08;55.46;97271.13;29373;203;63009;-64
2021/04/25 01:47:02;;;;;;;0.60;0.60;;;;;;;7.09;55.14;97272.75;29373;210;63005;-64
2021/04/25 01:47:33;;;;;;;0.60;0.60;;;;;;;7.11;55.48;97273.31;29394;221;64014;-64
2021/04/25 01:48:06;;;;;;;0.60;0.60;;;;;;;7.14;55.31;97269.28;29395;240;63005;-58
2021/04/25 01:48:38;;;;;;;0.60;0.60;;;;;;;7.20;54.91;97271.75;29395;204;63009;-64
2021/04/25 01:49:09;;;;;;;0.60;0.60;;;;;;;7.22;54.91;97269.59;29395;235;63005;-63
2021/04/25 01:49:41;;;;;;;0.65;0.65;;;;;;;7.24;54.76;97270.16;29395;237;63009;-57
2021/04/25 01:50:17;;;;;;;0.60;0.60;;;;;;;7.27;54.73;97269.62;29395;214;63004;-64
2021/04/25 01:50:49;;;;;;;0.60;0.60;;;;;;;7.29;54.65;97267.44;29395;233;63009;-65
2021/04/25 01:51:21;;;;;;;0.60;0.60;;;;;;;7.24;55.20;97275.53;29394;197;64009;-64
2021/04/25 01:51:52;;;;;;;0.60;0.60;;;;;;;7.19;54.81;97270.13;29395;230;63009;-64
2021/04/25 01:52:23;;;;;;;0.60;0.60;;;;;;;7.21;54.94;97270.66;29395;278;63004;-64
2021/04/25 01:52:54;;;;;;;0.60;0.60;;;;;;;7.21;55.18;97265.28;29373;263;63012;-63
2021/04/25 01:53:25;;;;;;;0.60;0.60;;;;;;;7.17;54.85;97269.56;29373;196;63004;-64
2021/04/25 01:53:57;;;;;;;0.55;0.55;;;;;;;7.15;55.34;97266.31;29373;231;63008;-65
2021/04/25 01:54:28;;;;;;;0.60;0.60;;;;;;;7.11;55.49;97265.22;29395;225;63001;-64
2021/04/25 01:54:59;;;;;;;0.50;0.50;;;;;;;7.15;55.23;97271.72;29395;276;63009;-64
2021/04/25 01:55:33;;;;;;;0.60;0.60;;;;;;;7.24;55.25;97263.94;29373;216;63005;-64
2021/04/25 01:56:05;;;;;;;0.60;0.60;;;;;;;7.25;54.67;97273.66;29371;337;64013;-64
2021/04/25 01:56:37;;;;;;;0.60;0.60;;;;;;;7.22;54.54;97261.50;29373;298;63005;-64
2021/04/25 01:57:08;;;;;;;0.60;0.60;;;;;;;7.20;54.79;97265.53;29373;197;63009;-65
2021/04/25 01:57:39;;;;;;;0.60;0.60;;;;;;;7.15;55.06;97269.00;29373;203;63004;-64
2021/04/25 01:58:12;;;;;;;0.60;0.60;;;;;;;7.10;55.74;97268.97;29373;228;63009;-65
2021/04/25 01:58:43;;;;;;;0.60;0.60;;;;;;;7.05;55.34;97263.56;29373;242;63004;-64
2021/04/25 01:59:14;;;;;;;0.60;0.60;;;;;;;7.00;55.40;97260.81;29373;197;63009;-64
2021/04/25 01:59:47;;;;;;;0.60;0.60;;;;;;;6.98;55.47;97266.47;29373;196;63004;-63
2021/04/25 02:00:27;;;;;;;0.60;0.60;;;;;;;6.98;55.52;97269.16;29373;294;63018;-64
2021/04/25 02:01:00;;;;;;;0.60;0.60;;;;;;;6.98;56.20;97273.75;29371;263;64009;-65
2021/04/25 02:01:31;;;;;;;0.60;0.60;;;;;;;6.95;57.04;97271.56;29373;337;63009;-63
2021/04/25 02:02:03;;;;;;;0.60;0.60;;;;;;;6.91;56.28;97267.78;29373;198;63005;-55
2021/04/25 02:02:35;;;;;;;0.50;0.50;;;;;;;6.91;56.31;97267.78;29373;211;63009;-55
2021/04/25 02:03:07;;;;;;;0.60;0.60;;;;;;;6.90;56.43;97268.88;29373;218;63005;-64
2021/04/25 02:03:39;;;;;;;0.60;0.60;;;;;;;6.89;56.20;97257.28;29373;225;63009;-65
2021/04/25 02:04:11;;;;;;;0.82;0.82;;;;;;;6.94;56.26;97265.37;29373;202;63005;-65
2021/04/25 02:04:42;;;;;;;0.60;0.60;;;;;;;6.93;56.71;97263.75;29373;264;63009;-64
2021/04/25 02:05:16;;;;;;;0.60;0.60;;;;;;;7.02;55.93;97264.87;29373;234;63004;-64
2021/04/25 02:05:47;;;;;;;0.60;0.60;;;;;;;7.12;55.36;97263.31;29371;330;64013;-65
2021/04/25 02:06:19;;;;;;;1.05;1.05;;;;;;;7.13;55.47;97265.75;29395;233;63004;-63
2021/04/25 02:06:50;;;;;;;0.60;0.60;;;;;;;7.12;55.55;97260.62;29371;293;64013;-63
2021/04/25 02:07:21;;;;;;;0.60;0.60;;;;;;;7.07;55.31;97256.00;29373;218;63004;-54
2021/04/25 02:07:53;;;;;;;0.60;0.60;;;;;;;7.01;55.47;97255.16;29371;208;64013;-65
2021/04/25 02:08:24;;;;;;;0.60;0.60;;;;;;;6.96;56.51;97254.31;29371;223;64009;-65
2021/04/25 02:08:55;;;;;;;0.60;0.60;;;;;;;6.91;55.76;97257.81;29373;200;63009;-64
2021/04/25 02:09:31;;;;;;;0.60;0.60;;;;;;;6.90;56.30;97255.38;29371;295;64009;-64
2021/04/25 02:10:05;;;;;;;0.60;0.60;;;;;;;6.97;56.23;97259.44;29373;277;63009;-64
2021/04/25 02:10:38;;;;;;;0.60;0.60;;;;;;;6.99;55.83;97260.00;29373;256;63005;-64
2021/04/25 02:11:12;;;;;;;0.60;0.60;;;;;;;7.07;55.66;97258.72;29373;247;63009;-63
2021/04/25 02:11:43;;;;;;;0.60;0.60;;;;;;;7.07;55.71;97253.31;29373;224;63005;-64
2021/04/25 02:12:15;;;;;;;0.60;0.60;;;;;;;7.05;55.66;97255.47;29373;226;63009;-63
2021/04/25 02:12:47;;;;;;;0.60;0.60;;;;;;;7.03;55.57;97258.41;29373;216;63004;-65
2021/04/25 02:13:18;;;;;;;0.60;0.60;;;;;;;6.99;55.47;97260.00;29371;198;64013;-64
2021/04/25 02:13:49;;;;;;;0.60;0.60;;;;;;;6.96;55.73;97257.81;29373;287;63004;-64
2021/04/25 02:14:20;;;;;;;0.60;0.60;;;;;;;6.94;56.52;97259.16;29373;226;63009;-63
2021/04/25 02:14:52;;;;;;;0.60;0.60;;;;;;;6.89;56.22;97262.66;29373;324;63004;-64
2021/04/25 02:15:25;;;;;;;0.60;0.60;;;;;;;6.86;56.01;97256.97;29395;273;63008;-56
2021/04/25 02:15:56;;;;;;;0.60;0.60;;;;;;;6.86;56.24;97257.78;29373;292;63005;-64
2021/04/25 02:16:27;;;;;;;0.60;0.60;;;;;;;6.86;56.42;97262.38;29373;301;63009;-64
2021/04/25 02:16:58;;;;;;;0.60;0.60;;;;;;;6.86;56.23;97259.66;29371;251;64009;-64
2021/04/25 02:17:29;;;;;;;0.60;0.60;;;;;;;6.87;56.52;97251.31;29394;239;64014;-64
2021/04/25 02:18:01;;;;;;;0.60;0.60;;;;;;;6.90;56.37;97258.09;29395;257;63005;-66
2021/04/25 02:18:33;;;;;;;0.60;0.60;;;;;;;6.91;56.42;97255.13;29395;197;63009;-64
2021/04/25 02:19:04;;;;;;;0.80;0.80;;;;;;;6.97;56.49;97256.75;29395;286;63005;-64
2021/04/25 02:19:35;;;;;;;0.60;0.60;;;;;;;7.11;55.72;97254.41;29373;219;63009;-66
2021/04/25 02:20:07;;;;;;;0.60;0.60;;;;;;;7.15;55.36;97252.00;29395;290;63004;-63
2021/04/25 02:20:39;;;;;;;0.60;0.60;;;;;;;7.17;55.61;97252.56;29373;306;63009;-64
2021/04/25 02:21:11;;;;;;;0.60;0.60;;;;;;;7.14;55.21;97250.37;29373;216;63004;-64
2021/04/25 02:21:42;;;;;;;0.50;0.50;;;;;;;7.10;55.62;97247.41;29395;238;63009;-65
2021/04/25 02:22:13;;;;;;;0.60;0.60;;;;;;;7.06;55.54;97257.09;29395;251;63004;-63
2021/04/25 02:22:45;;;;;;;0.60;0.60;;;;;;;7.04;55.80;97259.22;29394;293;64013;-65
2021/04/25 02:23:16;;;;;;;0.60;0.60;;;;;;;7.00;55.80;97256.22;29395;222;63004;-64
2021/04/25 02:23:47;;;;;;;0.60;0.60;;;;;;;6.95;55.75;97255.38;29373;235;63017;-64
2021/04/25 02:24:18;;;;;;;0.60;0.60;;;;;;;6.92;55.73;97262.16;29373;233;63005;-64
2021/04/25 02:24:49;;;;;;;0.60;0.60;;;;;;;6.93;56.28;97252.94;29373;323;63009;-65
2021/04/25 02:25:21;;;;;;;0.60;0.60;;;;;;;6.93;55.91;97252.16;29373;210;63005;-64
2021/04/25 02:25:53;;;;;;;0.60;0.60;;;;;;;6.94;56.09;97253.75;29373;216;63009;-64
2021/04/25 02:26:24;;;;;;;0.60;0.60;;;;;;;6.94;56.09;97253.75;29373;220;63005;-64
2021/04/25 02:26:56;;;;;;;0.60;0.60;;;;;;;6.90;57.19;97258.09;29373;313;63009;-64
2021/04/25 02:27:27;;;;;;;0.60;0.60;;;;;;;6.82;57.47;97253.97;29371;355;64009;-64
2021/04/25 02:27:58;;;;;;;0.60;0.60;;;;;;;6.76;57.28;97256.91;29373;245;63019;-63
2021/04/25 02:28:29;;;;;;;0.60;0.60;;;;;;;6.75;56.93;97256.09;29373;286;63004;-63
2021/04/25 02:29:00;;;;;;;0.60;0.60;;;;;;;6.75;57.01;97250.69;29373;277;63009;-63
2021/04/25 02:29:32;;;;;;;0.60;0.60;;;;;;;6.75;56.97;97255.28;29371;320;64009;-64
2021/04/25 02:30:06;;;;;;;0.60;0.60;;;;;;;6.72;56.95;97252.03;29373;220;63009;-54
2021/04/25 02:30:38;;;;;;;0.60;0.60;;;;;;;6.71;56.66;97261.19;29373;225;63004;-64
2021/04/25 02:31:11;;;;;;;0.50;0.50;;;;;;;6.68;57.57;97259.00;29395;279;63009;-63
2021/04/25 02:31:42;;;;;;;0.60;0.60;;;;;;;6.63;57.24;97253.56;29395;269;63005;-64
2021/04/25 02:32:16;;;;;;;0.60;0.60;;;;;;;6.65;57.15;97256.81;29373;356;63009;-64
2021/04/25 02:32:48;;;;;;;0.60;0.60;;;;;;;6.66;57.27;97247.66;29373;341;63005;-64
2021/04/25 02:33:20;;;;;;;0.60;0.60;;;;;;;6.69;57.18;97246.31;29371;237;64013;-64
2021/04/25 02:33:51;;;;;;;0.60;0.60;;;;;;;6.69;57.40;97246.31;29395;216;63005;-65
2021/04/25 02:34:23;;;;;;;0.60;0.60;;;;;;;6.68;57.76;97250.91;29371;231;64013;-64